AirNav   Bose ProFlight Series 2 Headset
 
 961 users online  

NH14 Parker International Heliport
Greenfield, New Hampshire, USA

GOING TO GREENFIELD?


FAA INFORMATION EFFECTIVE 02 JANUARY 2020

Location

FAA Identifier: NH14
Lat/Long: 42-55-46.0000N 071-51-39.0000W
42-55.766667N 071-51.650000W
42.9294444,-71.8608333
(estimated)
Elevation: 1065 ft. / 325 m
From city: 3 miles S of GREENFIELD, NH
Time zone: UTC -5 (UTC -4 during Daylight Saving Time)
Zip code: 03047

Heliport Operations

Heliport use: Private use. Permission required prior to landing
Activation date: 02/2016
Control tower: no
ARTCC: BOSTON CENTER
FSS: BANGOR FLIGHT SERVICE STATION
Attendance: 0700-DUSK
Wind indicator: yes
Segmented circle: no

Heliport Communications

WX ASOS at AFN (10 nm SW): 135.875 (603-532-6195)
WX AWOS-3PT at ASH (18 nm SE): 125.1 (603-578-0473)
WX AWOS-3PT at EEN (18 nm W): 119.025 (603-358-6424)
WX ASOS at MHT (19 nm E): 119.55 (603-621-1766)

Nearby radio navigation aids

VOR radial/distance  VOR name  Freq  Var
EENr081/20.6KEENE VORTAC109.4014W
CONr231/21.4CONCORD VOR/DME112.9015W
MHTr295/21.9MANCHESTER VOR/DME114.4015W
GDMr035/24.6GARDNER VOR/DME110.6014W
LWMr304/35.6LAWRENCE VOR/DME112.5015W

 
NDB name  Hdg/Dist  Freq  Var  ID
CLAREMONT156/34.623316WCNH -.-. -. ....

Heliport Services

Runway Information

Helipad H1

Dimensions: 48 x 48 ft. / 15 x 15 m
Surface: turf, in good condition
Runway edge lights: FLD
NON-STD H1 MKD WITH 3 FT ORANGE CONES.
Latitude: 42-55.766667N
Longitude: 071-51.650000W
Elevation: 1065.0 ft.
Traffic pattern: leftleft

Heliport Ownership and Management from official FAA records

Ownership: Privately-owned
Owner: RICHARD PARKER
81 GOULD HILL ROAD
GREENFIELD, NH 03047
Phone 603-397-3005
Manager: RICHARD PARKER
81 GOULD HILL ROAD
GREENFIELD, NH 03047
Phone 603-397-3005

Additional Remarks

FOR CD CTC BOSTON APCH AT 603-594-5551.

Instrument Procedures

There are no published instrument procedures at NH14.

Some nearby airports with instrument procedures:

KAFN - Jaffrey Airport-Silver Ranch (10 nm SW)
KASH - Boire Field Airport (18 nm SE)
KEEN - Dillant-Hopkins Airport (18 nm W)
KMHT - Manchester Airport (19 nm E)
KCON - Concord Municipal Airport (23 nm NE)
 
Loc | Ops | Rwys | IFR | FBO | Links
Com | Nav | Svcs | Stats | Notes
Aerial photo
No photo
 
Airport distance calculator
Flying to Parker International Heliport? Find the distance to fly.

From to NH14

Sunrise and sunset
Times for 19-Jan-2020
 Local
(UTC-5)
 Zulu
(UTC)
Morning civil twilight06:4311:43
Sunrise07:1512:15
Sunset16:4221:42
Evening civil twilight17:1322:13

Current date and time
Zulu (UTC)  19-Jan-2020 13:10:05
Local (UTC-5)  19-Jan-2020 08:10:05
 
METAR
KAFN 
10nm SW 
191252Z AUTO 16005KT 10SM FEW046 M07/M09 A2956 RMK AO2 SLP032 I1000 T10671089
KASH 
18nm SE 
191256Z 08003KT 10SM CLR M11/M11 A2961 RMK AO2 SNB24E34 SLP036 P0000 T11061111
KEEN 
18nm W 
191256Z AUTO 00000KT 9SM -SN BKN035 OVC042 M09/M10 A2962 RMK AO2 SNB11 SLP042 P0000 T10941100 FZRANO $
KMHT 
19nm E 
191253Z 20004KT 10SM FEW070 M08/M11 A2959 RMK AO2 SLP041 T10831106
TAF
KMHT 
19nm E 
191123Z 1912/2012 31006KT P6SM BKN060 FM191600 31009G16KT P6SM BKN050 FM192200 33008KT P6SM SCT050
KCON 
23nm NE 
191123Z 1912/2012 32004KT P6SM BKN060 FM191600 30009G16KT P6SM BKN050 FM192200 32010KT P6SM SCT050 AMD NOT SKED
NOTAMs
Click for the latest NOTAMs
NOTAMs are issued by the DoD/FAA and will open in a separate window not controlled by AirNav.

 

 
 

Would you like to see your business listed on this page?

 If your business provides an interesting product or service to pilots, flight crews, aircraft, or users of the Parker International Heliport, you should consider listing it here.  To start the listing process, click on the button below
 
Add a business
 

Other Pages about Parker International Heliport

Update a link
 
Copyright © AirNav, LLC. All rights reserved. Privacy Policy  Contact